sensor_id;sensor_type;location;lat;lon;timestamp;temperature;humidity
19168;DHT22;9716;53.114;18.040;2023-03-17T00:01:54;2.50;99.90
19168;DHT22;9716;53.114;18.040;2023-03-17T00:04:24;2.40;99.90
19168;DHT22;9716;53.114;18.040;2023-03-17T00:06:54;2.40;99.90
19168;DHT22;9716;53.114;18.040;2023-03-17T00:09:24;2.30;99.90
19168;DHT22;9716;53.114;18.040;2023-03-17T00:11:53;2.30;99.90
19168;DHT22;9716;53.114;18.040;2023-03-17T00:14:21;2.20;99.90
19168;DHT22;9716;53.114;18.040;2023-03-17T00:16:51;2.20;99.90
19168;DHT22;9716;53.114;18.040;2023-03-17T00:19:30;2.10;99.90
19168;DHT22;9716;53.114;18.040;2023-03-17T00:22:02;2.10;99.90
19168;DHT22;9716;53.114;18.040;2023-03-17T00:24:32;2.00;99.90
19168;DHT22;9716;53.114;18.040;2023-03-17T00:27:00;2.00;99.90
19168;DHT22;9716;53.114;18.040;2023-03-17T00:29:30;2.00;99.90
19168;DHT22;9716;53.114;18.040;2023-03-17T00:31:58;1.90;99.90
19168;DHT22;9716;53.114;18.040;2023-03-17T00:34:27;1.90;99.90
19168;DHT22;9716;53.114;18.040;2023-03-17T00:36:55;1.90;99.90
19168;DHT22;9716;53.114;18.040;2023-03-17T00:39:25;1.80;99.90
19168;DHT22;9716;53.114;18.040;2023-03-17T00:41:53;1.80;99.90
19168;DHT22;9716;53.114;18.040;2023-03-17T00:44:22;1.80;99.90
19168;DHT22;9716;53.114;18.040;2023-03-17T00:46:52;1.70;99.90
19168;DHT22;9716;53.114;18.040;2023-03-17T00:49:23;1.70;99.90
19168;DHT22;9716;53.114;18.040;2023-03-17T00:51:52;1.70;99.90
19168;DHT22;9716;53.114;18.040;2023-03-17T00:54:21;1.70;99.90
19168;DHT22;9716;53.114;18.040;2023-03-17T00:56:51;1.60;99.90
19168;DHT22;9716;53.114;18.040;2023-03-17T00:59:23;1.60;99.90
19168;DHT22;9716;53.114;18.040;2023-03-17T01:01:53;1.60;99.90
19168;DHT22;9716;53.114;18.040;2023-03-17T01:04:22;1.50;99.90
19168;DHT22;9716;53.114;18.040;2023-03-17T01:06:51;1.50;99.90
19168;DHT22;9716;53.114;18.040;2023-03-17T01:09:24;1.50;99.90
19168;DHT22;9716;53.114;18.040;2023-03-17T01:11:54;1.50;99.90
19168;DHT22;9716;53.114;18.040;2023-03-17T01:14:23;1.50;99.90
19168;DHT22;9716;53.114;18.040;2023-03-17T01:16:51;1.40;99.90
19168;DHT22;9716;53.114;18.040;2023-03-17T01:19:21;1.40;99.90
19168;DHT22;9716;53.114;18.040;2023-03-17T01:21:49;1.40;99.90
19168;DHT22;9716;53.114;18.040;2023-03-17T01:24:18;1.40;99.90
19168;DHT22;9716;53.114;18.040;2023-03-17T01:26:47;1.30;99.90
19168;DHT22;9716;53.114;18.040;2023-03-17T01:29:16;1.30;99.90
19168;DHT22;9716;53.114;18.040;2023-03-17T01:31:45;1.30;99.90
19168;DHT22;9716;53.114;18.040;2023-03-17T01:34:13;1.30;99.90
19168;DHT22;9716;53.114;18.040;2023-03-17T01:36:42;1.20;99.90
19168;DHT22;9716;53.114;18.040;2023-03-17T01:39:11;1.20;99.90
19168;DHT22;9716;53.114;18.040;2023-03-17T01:41:40;1.20;99.90
19168;DHT22;9716;53.114;18.040;2023-03-17T01:44:14;1.20;99.90
19168;DHT22;9716;53.114;18.040;2023-03-17T01:46:44;1.20;99.90
19168;DHT22;9716;53.114;18.040;2023-03-17T01:49:24;1.20;99.90
19168;DHT22;9716;53.114;18.040;2023-03-17T01:52:01;1.20;99.90
19168;DHT22;9716;53.114;18.040;2023-03-17T01:54:35;1.20;99.90
19168;DHT22;9716;53.114;18.040;2023-03-17T01:57:09;1.20;99.90
19168;DHT22;9716;53.114;18.040;2023-03-17T01:59:42;1.10;99.90
19168;DHT22;9716;53.114;18.040;2023-03-17T02:02:15;1.10;99.90
19168;DHT22;9716;53.114;18.040;2023-03-17T02:04:45;1.10;99.90
19168;DHT22;9716;53.114;18.040;2023-03-17T02:07:14;1.10;99.90
19168;DHT22;9716;53.114;18.040;2023-03-17T02:09:42;1.10;99.90
19168;DHT22;9716;53.114;18.040;2023-03-17T02:12:12;1.10;99.90
19168;DHT22;9716;53.114;18.040;2023-03-17T02:14:41;1.10;99.90
19168;DHT22;9716;53.114;18.040;2023-03-17T02:17:10;1.20;99.90
19168;DHT22;9716;53.114;18.040;2023-03-17T02:19:40;1.10;99.90
19168;DHT22;9716;53.114;18.040;2023-03-17T02:22:12;1.10;99.90
19168;DHT22;9716;53.114;18.040;2023-03-17T02:24:43;1.20;99.90
19168;DHT22;9716;53.114;18.040;2023-03-17T02:27:16;1.10;99.90
19168;DHT22;9716;53.114;18.040;2023-03-17T02:29:45;1.20;99.90
19168;DHT22;9716;53.114;18.040;2023-03-17T02:32:14;1.20;99.90
19168;DHT22;9716;53.114;18.040;2023-03-17T02:34:44;1.20;99.90
19168;DHT22;9716;53.114;18.040;2023-03-17T02:37:15;1.20;99.90
19168;DHT22;9716;53.114;18.040;2023-03-17T02:39:44;1.20;99.90
19168;DHT22;9716;53.114;18.040;2023-03-17T02:42:13;1.30;99.90
19168;DHT22;9716;53.114;18.040;2023-03-17T02:44:41;1.30;99.90
19168;DHT22;9716;53.114;18.040;2023-03-17T02:47:10;1.30;99.90
19168;DHT22;9716;53.114;18.040;2023-03-17T02:49:39;1.30;99.90
19168;DHT22;9716;53.114;18.040;2023-03-17T02:52:08;1.40;99.90
19168;DHT22;9716;53.114;18.040;2023-03-17T02:54:38;1.40;99.90
19168;DHT22;9716;53.114;18.040;2023-03-17T02:57:07;1.40;99.90
19168;DHT22;9716;53.114;18.040;2023-03-17T02:59:36;1.40;99.90
19168;DHT22;9716;53.114;18.040;2023-03-17T03:02:04;1.40;99.90
19168;DHT22;9716;53.114;18.040;2023-03-17T03:04:33;1.40;99.90
19168;DHT22;9716;53.114;18.040;2023-03-17T03:07:02;1.40;99.90
19168;DHT22;9716;53.114;18.040;2023-03-17T03:09:31;1.30;99.90
19168;DHT22;9716;53.114;18.040;2023-03-17T03:12:01;1.30;99.90
19168;DHT22;9716;53.114;18.040;2023-03-17T03:14:29;1.30;99.90
19168;DHT22;9716;53.114;18.040;2023-03-17T03:16:58;1.20;99.90
19168;DHT22;9716;53.114;18.040;2023-03-17T03:19:27;1.20;99.90
19168;DHT22;9716;53.114;18.040;2023-03-17T03:21:55;1.20;99.90
19168;DHT22;9716;53.114;18.040;2023-03-17T03:24:24;1.10;99.90
19168;DHT22;9716;53.114;18.040;2023-03-17T03:26:52;1.10;99.90
19168;DHT22;9716;53.114;18.040;2023-03-17T03:29:22;1.10;99.90
19168;DHT22;9716;53.114;18.040;2023-03-17T03:31:50;1.00;99.90
19168;DHT22;9716;53.114;18.040;2023-03-17T03:34:19;1.20;99.90
19168;DHT22;9716;53.114;18.040;2023-03-17T03:36:48;1.00;99.90
19168;DHT22;9716;53.114;18.040;2023-03-17T03:39:16;1.10;99.90
19168;DHT22;9716;53.114;18.040;2023-03-17T03:41:44;1.10;99.90
19168;DHT22;9716;53.114;18.040;2023-03-17T03:44:13;1.10;99.90
19168;DHT22;9716;53.114;18.040;2023-03-17T03:46:43;1.10;99.90
19168;DHT22;9716;53.114;18.040;2023-03-17T03:49:12;1.10;99.90
19168;DHT22;9716;53.114;18.040;2023-03-17T03:51:40;1.20;99.90
19168;DHT22;9716;53.114;18.040;2023-03-17T03:54:08;1.20;99.90
19168;DHT22;9716;53.114;18.040;2023-03-17T03:56:36;1.20;99.90
19168;DHT22;9716;53.114;18.040;2023-03-17T03:59:05;1.20;99.90
19168;DHT22;9716;53.114;18.040;2023-03-17T04:01:34;1.10;99.90
19168;DHT22;9716;53.114;18.040;2023-03-17T04:04:04;1.10;99.90
19168;DHT22;9716;53.114;18.040;2023-03-17T04:06:33;1.10;99.90
19168;DHT22;9716;53.114;18.040;2023-03-17T04:09:01;1.10;99.90
19168;DHT22;9716;53.114;18.040;2023-03-17T04:11:29;1.10;99.90
19168;DHT22;9716;53.114;18.040;2023-03-17T04:13:58;1.20;99.90
19168;DHT22;9716;53.114;18.040;2023-03-17T04:16:26;1.20;99.90
19168;DHT22;9716;53.114;18.040;2023-03-17T04:18:55;1.20;99.90
19168;DHT22;9716;53.114;18.040;2023-03-17T04:21:25;1.20;99.90
19168;DHT22;9716;53.114;18.040;2023-03-17T04:23:54;1.20;99.90
19168;DHT22;9716;53.114;18.040;2023-03-17T04:26:22;1.20;99.90
19168;DHT22;9716;53.114;18.040;2023-03-17T04:28:51;1.20;99.90
19168;DHT22;9716;53.114;18.040;2023-03-17T04:31:19;1.20;99.90
19168;DHT22;9716;53.114;18.040;2023-03-17T04:33:48;1.20;99.90
19168;DHT22;9716;53.114;18.040;2023-03-17T04:36:18;1.20;99.90
19168;DHT22;9716;53.114;18.040;2023-03-17T04:38:48;1.20;99.90
19168;DHT22;9716;53.114;18.040;2023-03-17T04:41:34;1.20;99.90
19168;DHT22;9716;53.114;18.040;2023-03-17T04:44:03;1.20;99.90
19168;DHT22;9716;53.114;18.040;2023-03-17T04:46:31;1.20;99.90
19168;DHT22;9716;53.114;18.040;2023-03-17T04:49:01;1.20;99.90
19168;DHT22;9716;53.114;18.040;2023-03-17T04:51:29;1.20;99.90
19168;DHT22;9716;53.114;18.040;2023-03-17T04:53:59;1.20;99.90
19168;DHT22;9716;53.114;18.040;2023-03-17T04:56:28;1.30;99.90
19168;DHT22;9716;53.114;18.040;2023-03-17T04:58:58;1.30;99.90
19168;DHT22;9716;53.114;18.040;2023-03-17T05:01:26;1.30;99.90
19168;DHT22;9716;53.114;18.040;2023-03-17T05:03:55;1.40;99.90
19168;DHT22;9716;53.114;18.040;2023-03-17T05:06:23;1.40;99.90
19168;DHT22;9716;53.114;18.040;2023-03-17T05:08:52;1.40;99.90
19168;DHT22;9716;53.114;18.040;2023-03-17T05:11:22;1.50;99.90
19168;DHT22;9716;53.114;18.040;2023-03-17T05:13:51;1.50;99.90
19168;DHT22;9716;53.114;18.040;2023-03-17T05:16:19;1.60;99.90
19168;DHT22;9716;53.114;18.040;2023-03-17T05:18:48;1.60;99.90
19168;DHT22;9716;53.114;18.040;2023-03-17T05:21:16;1.60;99.90
19168;DHT22;9716;53.114;18.040;2023-03-17T05:23:45;1.70;99.90
19168;DHT22;9716;53.114;18.040;2023-03-17T05:26:13;1.70;99.90
19168;DHT22;9716;53.114;18.040;2023-03-17T05:28:43;1.80;99.90
19168;DHT22;9716;53.114;18.040;2023-03-17T05:31:12;1.80;99.90
19168;DHT22;9716;53.114;18.040;2023-03-17T05:33:40;1.80;99.90
19168;DHT22;9716;53.114;18.040;2023-03-17T05:36:09;1.90;99.90
19168;DHT22;9716;53.114;18.040;2023-03-17T05:38:38;1.90;99.90
19168;DHT22;9716;53.114;18.040;2023-03-17T05:41:06;1.90;99.90
19168;DHT22;9716;53.114;18.040;2023-03-17T05:43:36;1.90;99.90
19168;DHT22;9716;53.114;18.040;2023-03-17T05:46:06;1.90;99.90
19168;DHT22;9716;53.114;18.040;2023-03-17T05:48:35;1.90;99.90
19168;DHT22;9716;53.114;18.040;2023-03-17T05:51:04;1.90;99.90
19168;DHT22;9716;53.114;18.040;2023-03-17T05:53:32;1.90;99.90
19168;DHT22;9716;53.114;18.040;2023-03-17T05:56:02;2.00;99.90
19168;DHT22;9716;53.114;18.040;2023-03-17T05:58:31;2.00;99.90
19168;DHT22;9716;53.114;18.040;2023-03-17T06:00:59;2.00;99.90
19168;DHT22;9716;53.114;18.040;2023-03-17T06:03:29;2.10;99.90
19168;DHT22;9716;53.114;18.040;2023-03-17T06:05:57;2.10;99.90
19168;DHT22;9716;53.114;18.040;2023-03-17T06:08:26;2.20;99.90
19168;DHT22;9716;53.114;18.040;2023-03-17T06:10:55;2.30;99.90
19168;DHT22;9716;53.114;18.040;2023-03-17T06:13:24;2.40;99.90
19168;DHT22;9716;53.114;18.040;2023-03-17T06:15:53;2.50;99.90
19168;DHT22;9716;53.114;18.040;2023-03-17T06:18:21;2.60;99.90
19168;DHT22;9716;53.114;18.040;2023-03-17T06:20:51;2.60;99.90
19168;DHT22;9716;53.114;18.040;2023-03-17T06:23:20;2.70;99.90
19168;DHT22;9716;53.114;18.040;2023-03-17T06:25:49;2.70;99.90
19168;DHT22;9716;53.114;18.040;2023-03-17T06:28:18;2.80;99.90
19168;DHT22;9716;53.114;18.040;2023-03-17T06:30:46;2.80;99.90
19168;DHT22;9716;53.114;18.040;2023-03-17T06:33:15;2.90;99.90
19168;DHT22;9716;53.114;18.040;2023-03-17T06:35:45;2.90;99.90
19168;DHT22;9716;53.114;18.040;2023-03-17T06:38:15;2.90;99.90
19168;DHT22;9716;53.114;18.040;2023-03-17T06:40:43;3.00;99.90
19168;DHT22;9716;53.114;18.040;2023-03-17T06:43:11;3.00;99.90
19168;DHT22;9716;53.114;18.040;2023-03-17T06:45:40;3.10;99.90
19168;DHT22;9716;53.114;18.040;2023-03-17T06:48:08;3.20;99.90
19168;DHT22;9716;53.114;18.040;2023-03-17T06:50:37;3.20;99.90
19168;DHT22;9716;53.114;18.040;2023-03-17T06:53:06;3.30;99.90
19168;DHT22;9716;53.114;18.040;2023-03-17T06:55:36;3.40;99.90
19168;DHT22;9716;53.114;18.040;2023-03-17T06:58:05;3.40;99.90
19168;DHT22;9716;53.114;18.040;2023-03-17T07:00:35;3.60;99.90
19168;DHT22;9716;53.114;18.040;2023-03-17T07:03:04;3.60;99.90
19168;DHT22;9716;53.114;18.040;2023-03-17T07:05:32;3.70;99.90
19168;DHT22;9716;53.114;18.040;2023-03-17T07:08:01;3.80;99.90
19168;DHT22;9716;53.114;18.040;2023-03-17T07:10:29;3.90;99.90
19168;DHT22;9716;53.114;18.040;2023-03-17T07:13:00;4.00;99.90
19168;DHT22;9716;53.114;18.040;2023-03-17T07:15:29;4.10;99.90
19168;DHT22;9716;53.114;18.040;2023-03-17T07:18:01;4.10;99.90
19168;DHT22;9716;53.114;18.040;2023-03-17T07:20:30;4.20;99.90
19168;DHT22;9716;53.114;18.040;2023-03-17T07:22:59;4.20;99.90
19168;DHT22;9716;53.114;18.040;2023-03-17T07:25:27;4.20;99.90
19168;DHT22;9716;53.114;18.040;2023-03-17T07:27:56;4.20;99.90
19168;DHT22;9716;53.114;18.040;2023-03-17T07:30:26;4.30;99.90
19168;DHT22;9716;53.114;18.040;2023-03-17T07:32:56;4.40;99.90
19168;DHT22;9716;53.114;18.040;2023-03-17T07:35:24;4.40;99.90
19168;DHT22;9716;53.114;18.040;2023-03-17T07:37:54;4.50;99.90
19168;DHT22;9716;53.114;18.040;2023-03-17T07:40:22;4.60;99.90
19168;DHT22;9716;53.114;18.040;2023-03-17T07:42:51;4.80;99.90
19168;DHT22;9716;53.114;18.040;2023-03-17T07:45:19;4.90;99.90
19168;DHT22;9716;53.114;18.040;2023-03-17T07:47:49;5.20;99.90
19168;DHT22;9716;53.114;18.040;2023-03-17T07:50:20;5.40;99.90
19168;DHT22;9716;53.114;18.040;2023-03-17T07:52:49;5.70;99.90
19168;DHT22;9716;53.114;18.040;2023-03-17T07:55:17;6.00;99.90
19168;DHT22;9716;53.114;18.040;2023-03-17T07:57:46;6.20;99.90
19168;DHT22;9716;53.114;18.040;2023-03-17T08:00:15;6.50;99.90
19168;DHT22;9716;53.114;18.040;2023-03-17T08:02:44;6.70;99.90
19168;DHT22;9716;53.114;18.040;2023-03-17T08:05:34;6.90;99.90
19168;DHT22;9716;53.114;18.040;2023-03-17T08:08:03;7.00;99.90
19168;DHT22;9716;53.114;18.040;2023-03-17T08:10:32;7.20;99.90
19168;DHT22;9716;53.114;18.040;2023-03-17T08:13:04;7.30;99.90
19168;DHT22;9716;53.114;18.040;2023-03-17T08:15:33;7.40;99.90
19168;DHT22;9716;53.114;18.040;2023-03-17T08:18:02;7.40;99.90
19168;DHT22;9716;53.114;18.040;2023-03-17T08:20:31;7.30;99.90
19168;DHT22;9716;53.114;18.040;2023-03-17T08:23:02;7.30;99.90
19168;DHT22;9716;53.114;18.040;2023-03-17T08:25:32;7.20;99.90
19168;DHT22;9716;53.114;18.040;2023-03-17T08:28:01;7.20;99.90
19168;DHT22;9716;53.114;18.040;2023-03-17T08:30:29;7.30;99.90
19168;DHT22;9716;53.114;18.040;2023-03-17T08:33:00;7.50;99.90
19168;DHT22;9716;53.114;18.040;2023-03-17T08:35:28;7.70;99.90
19168;DHT22;9716;53.114;18.040;2023-03-17T08:37:58;8.00;99.90
19168;DHT22;9716;53.114;18.040;2023-03-17T08:40:28;8.30;99.90
19168;DHT22;9716;53.114;18.040;2023-03-17T08:42:57;8.50;99.90
19168;DHT22;9716;53.114;18.040;2023-03-17T08:45:26;8.60;99.90
19168;DHT22;9716;53.114;18.040;2023-03-17T08:47:54;8.80;99.90
19168;DHT22;9716;53.114;18.040;2023-03-17T08:50:23;9.00;99.90
19168;DHT22;9716;53.114;18.040;2023-03-17T08:52:52;9.10;99.90
19168;DHT22;9716;53.114;18.040;2023-03-17T08:55:21;9.40;99.90
19168;DHT22;9716;53.114;18.040;2023-03-17T08:57:51;9.60;99.90
19168;DHT22;9716;53.114;18.040;2023-03-17T09:00:20;9.90;99.90
19168;DHT22;9716;53.114;18.040;2023-03-17T09:02:49;10.00;99.90
19168;DHT22;9716;53.114;18.040;2023-03-17T09:05:17;10.10;99.90
19168;DHT22;9716;53.114;18.040;2023-03-17T09:07:47;10.10;99.90
19168;DHT22;9716;53.114;18.040;2023-03-17T09:10:16;10.10;99.90
19168;DHT22;9716;53.114;18.040;2023-03-17T09:12:49;10.00;99.90
19168;DHT22;9716;53.114;18.040;2023-03-17T09:15:19;10.00;99.90
19168;DHT22;9716;53.114;18.040;2023-03-17T09:17:48;10.10;99.90
19168;DHT22;9716;53.114;18.040;2023-03-17T09:20:17;10.20;99.90
19168;DHT22;9716;53.114;18.040;2023-03-17T09:22:45;10.40;99.90
19168;DHT22;9716;53.114;18.040;2023-03-17T09:25:15;10.60;99.90
19168;DHT22;9716;53.114;18.040;2023-03-17T09:27:44;10.80;99.90
19168;DHT22;9716;53.114;18.040;2023-03-17T09:30:13;10.90;99.90
19168;DHT22;9716;53.114;18.040;2023-03-17T09:32:44;11.10;99.90
19168;DHT22;9716;53.114;18.040;2023-03-17T09:35:12;11.20;99.90
19168;DHT22;9716;53.114;18.040;2023-03-17T09:37:41;11.30;99.90
19168;DHT22;9716;53.114;18.040;2023-03-17T09:40:13;11.40;99.90
19168;DHT22;9716;53.114;18.040;2023-03-17T09:42:52;11.60;99.90
19168;DHT22;9716;53.114;18.040;2023-03-17T09:45:31;11.80;99.90
19168;DHT22;9716;53.114;18.040;2023-03-17T09:48:18;11.80;99.90
19168;DHT22;9716;53.114;18.040;2023-03-17T09:50:53;11.90;99.90
19168;DHT22;9716;53.114;18.040;2023-03-17T09:53:26;11.90;99.90
19168;DHT22;9716;53.114;18.040;2023-03-17T09:56:04;12.00;99.00
19168;DHT22;9716;53.114;18.040;2023-03-17T09:58:35;12.00;98.50
19168;DHT22;9716;53.114;18.040;2023-03-17T10:01:04;12.10;97.90
19168;DHT22;9716;53.114;18.040;2023-03-17T10:03:34;12.10;96.80
19168;DHT22;9716;53.114;18.040;2023-03-17T10:06:32;12.20;96.70
19168;DHT22;9716;53.114;18.040;2023-03-17T10:09:09;12.10;94.50
19168;DHT22;9716;53.114;18.040;2023-03-17T10:11:57;12.10;94.80
19168;DHT22;9716;53.114;18.040;2023-03-17T10:14:51;11.90;94.20
19168;DHT22;9716;53.114;18.040;2023-03-17T10:17:25;11.90;93.60
19168;DHT22;9716;53.114;18.040;2023-03-17T10:19:59;12.00;93.50
19168;DHT22;9716;53.114;18.040;2023-03-17T10:22:36;12.00;93.10
19168;DHT22;9716;53.114;18.040;2023-03-17T10:25:13;12.00;92.50
19168;DHT22;9716;53.114;18.040;2023-03-17T10:27:45;12.00;91.70
19168;DHT22;9716;53.114;18.040;2023-03-17T10:30:15;12.00;91.20
19168;DHT22;9716;53.114;18.040;2023-03-17T10:32:45;11.90;91.00
19168;DHT22;9716;53.114;18.040;2023-03-17T10:35:16;11.90;90.80
19168;DHT22;9716;53.114;18.040;2023-03-17T10:37:46;11.90;91.30
19168;DHT22;9716;53.114;18.040;2023-03-17T10:40:20;11.90;91.50
19168;DHT22;9716;53.114;18.040;2023-03-17T10:42:53;11.90;90.80
19168;DHT22;9716;53.114;18.040;2023-03-17T10:45:27;11.90;91.40
19168;DHT22;9716;53.114;18.040;2023-03-17T10:47:57;11.90;90.70
19168;DHT22;9716;53.114;18.040;2023-03-17T10:50:30;11.80;90.40
19168;DHT22;9716;53.114;18.040;2023-03-17T10:53:05;11.80;90.10
19168;DHT22;9716;53.114;18.040;2023-03-17T10:55:41;11.70;90.00
19168;DHT22;9716;53.114;18.040;2023-03-17T10:58:14;11.70;90.00
19168;DHT22;9716;53.114;18.040;2023-03-17T11:00:53;11.70;90.30
19168;DHT22;9716;53.114;18.040;2023-03-17T11:03:24;11.60;90.30
19168;DHT22;9716;53.114;18.040;2023-03-17T11:05:57;11.60;90.20
19168;DHT22;9716;53.114;18.040;2023-03-17T11:08:30;11.60;90.10
19168;DHT22;9716;53.114;18.040;2023-03-17T11:10:59;11.60;88.50
19168;DHT22;9716;53.114;18.040;2023-03-17T11:13:28;11.60;88.20
19168;DHT22;9716;53.114;18.040;2023-03-17T11:16:09;11.40;88.00
19168;DHT22;9716;53.114;18.040;2023-03-17T11:18:42;11.40;88.20
19168;DHT22;9716;53.114;18.040;2023-03-17T11:21:16;11.30;88.90
19168;DHT22;9716;53.114;18.040;2023-03-17T11:23:49;11.20;88.80
19168;DHT22;9716;53.114;18.040;2023-03-17T11:26:34;11.20;88.40
19168;DHT22;9716;53.114;18.040;2023-03-17T11:29:22;11.20;88.00
19168;DHT22;9716;53.114;18.040;2023-03-17T11:31:58;11.30;88.50
19168;DHT22;9716;53.114;18.040;2023-03-17T11:34:46;11.30;89.00
19168;DHT22;9716;53.114;18.040;2023-03-17T11:37:30;11.30;89.30
19168;DHT22;9716;53.114;18.040;2023-03-17T11:40:03;11.40;89.50
19168;DHT22;9716;53.114;18.040;2023-03-17T11:42:38;11.40;88.20
19168;DHT22;9716;53.114;18.040;2023-03-17T11:45:20;11.40;87.60
19168;DHT22;9716;53.114;18.040;2023-03-17T11:48:15;11.40;86.90
19168;DHT22;9716;53.114;18.040;2023-03-17T11:50:52;11.50;85.80
19168;DHT22;9716;53.114;18.040;2023-03-17T11:53:53;11.50;85.40
19168;DHT22;9716;53.114;18.040;2023-03-17T11:56:29;11.60;85.40
19168;DHT22;9716;53.114;18.040;2023-03-17T11:59:02;11.70;85.70
19168;DHT22;9716;53.114;18.040;2023-03-17T12:01:39;11.90;85.80
19168;DHT22;9716;53.114;18.040;2023-03-17T12:04:16;11.90;84.70
19168;DHT22;9716;53.114;18.040;2023-03-17T12:06:48;12.00;84.60
19168;DHT22;9716;53.114;18.040;2023-03-17T12:09:26;12.00;84.20
19168;DHT22;9716;53.114;18.040;2023-03-17T12:11:56;12.00;83.00
19168;DHT22;9716;53.114;18.040;2023-03-17T12:14:27;12.00;82.50
19168;DHT22;9716;53.114;18.040;2023-03-17T12:17:02;11.90;82.50
19168;DHT22;9716;53.114;18.040;2023-03-17T12:19:38;11.80;82.30
19168;DHT22;9716;53.114;18.040;2023-03-17T12:22:16;11.80;82.10
19168;DHT22;9716;53.114;18.040;2023-03-17T12:24:52;11.80;81.80
19168;DHT22;9716;53.114;18.040;2023-03-17T12:27:26;11.70;81.60
19168;DHT22;9716;53.114;18.040;2023-03-17T12:29:59;11.70;81.70
19168;DHT22;9716;53.114;18.040;2023-03-17T12:32:35;11.60;81.10
19168;DHT22;9716;53.114;18.040;2023-03-17T12:35:22;11.60;81.10
19168;DHT22;9716;53.114;18.040;2023-03-17T12:37:52;11.70;81.20
19168;DHT22;9716;53.114;18.040;2023-03-17T12:40:25;11.50;81.30
19168;DHT22;9716;53.114;18.040;2023-03-17T12:43:13;11.50;81.60
19168;DHT22;9716;53.114;18.040;2023-03-17T12:46:08;11.50;81.20
19168;DHT22;9716;53.114;18.040;2023-03-17T12:48:52;11.60;80.40
19168;DHT22;9716;53.114;18.040;2023-03-17T12:51:33;11.60;80.20
19168;DHT22;9716;53.114;18.040;2023-03-17T12:54:11;11.60;79.50
19168;DHT22;9716;53.114;18.040;2023-03-17T12:56:45;11.70;79.40
19168;DHT22;9716;53.114;18.040;2023-03-17T12:59:17;11.70;79.00
19168;DHT22;9716;53.114;18.040;2023-03-17T13:01:54;11.60;79.10
19168;DHT22;9716;53.114;18.040;2023-03-17T13:04:26;11.50;79.10
19168;DHT22;9716;53.114;18.040;2023-03-17T13:07:04;11.60;79.00
19168;DHT22;9716;53.114;18.040;2023-03-17T13:09:42;11.60;80.30
19168;DHT22;9716;53.114;18.040;2023-03-17T13:12:53;11.50;79.00
19168;DHT22;9716;53.114;18.040;2023-03-17T13:15:27;11.50;78.80
19168;DHT22;9716;53.114;18.040;2023-03-17T13:18:22;11.40;78.30
19168;DHT22;9716;53.114;18.040;2023-03-17T13:21:07;11.30;78.40
19168;DHT22;9716;53.114;18.040;2023-03-17T13:23:40;11.30;77.70
19168;DHT22;9716;53.114;18.040;2023-03-17T13:26:11;11.10;77.70
19168;DHT22;9716;53.114;18.040;2023-03-17T13:28:44;11.10;78.50
19168;DHT22;9716;53.114;18.040;2023-03-17T13:34:10;11.10;78.90
19168;DHT22;9716;53.114;18.040;2023-03-17T13:36:52;11.00;79.50
19168;DHT22;9716;53.114;18.040;2023-03-17T13:40:06;11.00;79.40
19168;DHT22;9716;53.114;18.040;2023-03-17T13:42:55;11.00;79.80
19168;DHT22;9716;53.114;18.040;2023-03-17T13:45:35;11.00;80.10
19168;DHT22;9716;53.114;18.040;2023-03-17T13:48:24;11.00;80.10
19168;DHT22;9716;53.114;18.040;2023-03-17T13:50:57;10.90;80.10
19168;DHT22;9716;53.114;18.040;2023-03-17T13:53:29;10.90;80.00
19168;DHT22;9716;53.114;18.040;2023-03-17T13:56:08;10.90;79.90
19168;DHT22;9716;53.114;18.040;2023-03-17T13:59:06;10.90;80.00
19168;DHT22;9716;53.114;18.040;2023-03-17T14:01:44;10.90;80.00
19168;DHT22;9716;53.114;18.040;2023-03-17T14:04:23;11.00;80.00
19168;DHT22;9716;53.114;18.040;2023-03-17T14:06:55;11.00;80.10
19168;DHT22;9716;53.114;18.040;2023-03-17T14:09:34;10.90;80.20
19168;DHT22;9716;53.114;18.040;2023-03-17T14:12:10;11.00;80.20
19168;DHT22;9716;53.114;18.040;2023-03-17T14:14:47;10.90;80.00
19168;DHT22;9716;53.114;18.040;2023-03-17T14:17:23;10.90;80.10
19168;DHT22;9716;53.114;18.040;2023-03-17T14:19:59;10.90;80.10
19168;DHT22;9716;53.114;18.040;2023-03-17T14:22:28;10.90;80.10
19168;DHT22;9716;53.114;18.040;2023-03-17T14:24:59;10.80;79.80
19168;DHT22;9716;53.114;18.040;2023-03-17T14:27:31;10.80;79.60
19168;DHT22;9716;53.114;18.040;2023-03-17T14:30:15;10.80;78.90
19168;DHT22;9716;53.114;18.040;2023-03-17T14:32:47;10.80;78.90
19168;DHT22;9716;53.114;18.040;2023-03-17T14:35:18;10.70;79.60
19168;DHT22;9716;53.114;18.040;2023-03-17T14:37:47;10.70;77.00
19168;DHT22;9716;53.114;18.040;2023-03-17T14:40:21;10.80;76.40
19168;DHT22;9716;53.114;18.040;2023-03-17T14:42:50;10.90;77.20
19168;DHT22;9716;53.114;18.040;2023-03-17T14:45:27;11.10;78.20
19168;DHT22;9716;53.114;18.040;2023-03-17T14:48:14;11.10;78.70
19168;DHT22;9716;53.114;18.040;2023-03-17T14:50:49;11.30;79.30
19168;DHT22;9716;53.114;18.040;2023-03-17T14:53:18;11.40;79.80
19168;DHT22;9716;53.114;18.040;2023-03-17T14:55:51;11.60;80.40
19168;DHT22;9716;53.114;18.040;2023-03-17T14:58:24;11.70;81.20
19168;DHT22;9716;53.114;18.040;2023-03-17T15:00:55;11.80;81.30
19168;DHT22;9716;53.114;18.040;2023-03-17T15:03:29;11.90;81.20
19168;DHT22;9716;53.114;18.040;2023-03-17T15:06:22;12.00;81.10
19168;DHT22;9716;53.114;18.040;2023-03-17T15:08:51;12.10;81.10
19168;DHT22;9716;53.114;18.040;2023-03-17T15:11:25;12.10;80.90
19168;DHT22;9716;53.114;18.040;2023-03-17T15:13:55;12.20;81.20
19168;DHT22;9716;53.114;18.040;2023-03-17T15:16:33;12.20;81.30
19168;DHT22;9716;53.114;18.040;2023-03-17T15:19:06;12.20;81.50
19168;DHT22;9716;53.114;18.040;2023-03-17T15:21:39;12.20;81.70
19168;DHT22;9716;53.114;18.040;2023-03-17T15:24:35;12.20;81.90
19168;DHT22;9716;53.114;18.040;2023-03-17T15:27:10;12.20;82.30
19168;DHT22;9716;53.114;18.040;2023-03-17T15:29:40;12.20;82.50
19168;DHT22;9716;53.114;18.040;2023-03-17T15:32:11;12.20;82.80
19168;DHT22;9716;53.114;18.040;2023-03-17T15:34:42;12.20;83.10
19168;DHT22;9716;53.114;18.040;2023-03-17T15:37:15;12.20;83.40
19168;DHT22;9716;53.114;18.040;2023-03-17T15:39:45;12.20;83.60
19168;DHT22;9716;53.114;18.040;2023-03-17T15:42:14;12.20;83.60
19168;DHT22;9716;53.114;18.040;2023-03-17T15:44:44;12.20;83.90
19168;DHT22;9716;53.114;18.040;2023-03-17T15:47:19;12.10;84.00
19168;DHT22;9716;53.114;18.040;2023-03-17T15:49:49;12.10;84.10
19168;DHT22;9716;53.114;18.040;2023-03-17T15:52:20;12.10;84.40
19168;DHT22;9716;53.114;18.040;2023-03-17T15:54:52;12.00;84.70
19168;DHT22;9716;53.114;18.040;2023-03-17T15:57:20;11.90;84.90
19168;DHT22;9716;53.114;18.040;2023-03-17T15:59:49;11.90;85.30
19168;DHT22;9716;53.114;18.040;2023-03-17T16:02:28;11.80;85.40
19168;DHT22;9716;53.114;18.040;2023-03-17T16:05:01;11.70;85.00
19168;DHT22;9716;53.114;18.040;2023-03-17T16:07:30;11.60;85.30
19168;DHT22;9716;53.114;18.040;2023-03-17T16:09:58;11.50;85.70
19168;DHT22;9716;53.114;18.040;2023-03-17T16:12:27;11.50;85.60
19168;DHT22;9716;53.114;18.040;2023-03-17T16:14:55;11.40;85.60